sensor_id;sensor_type;location;lat;lon;timestamp;pressure;altitude;pressure_sealevel;temperature;humidity
7768;BME280;3928;42.626;23.382;2023-04-06T00:00:00;93862.53;;;4.04;58.45
7768;BME280;3928;42.626;23.382;2023-04-06T00:02:28;93866.72;;;3.84;59.19
7768;BME280;3928;42.626;23.382;2023-04-06T00:04:55;93866.72;;;3.85;59.88
7768;BME280;3928;42.626;23.382;2023-04-06T00:07:22;93858.25;;;3.88;59.85
7768;BME280;3928;42.626;23.382;2023-04-06T00:09:49;93851.50;;;3.79;60.08
7768;BME280;3928;42.626;23.382;2023-04-06T00:12:16;93851.47;;;3.77;59.88
7768;BME280;3928;42.626;23.382;2023-04-06T00:14:43;93857.34;;;3.55;60.83
7768;BME280;3928;42.626;23.382;2023-04-06T00:17:10;93858.19;;;3.45;61.05
7768;BME280;3928;42.626;23.382;2023-04-06T00:19:38;93859.84;;;3.37;61.54
7768;BME280;3928;42.626;23.382;2023-04-06T00:22:05;93837.03;;;3.35;60.96
7768;BME280;3928;42.626;23.382;2023-04-06T00:24:32;93853.03;;;3.23;62.04
7768;BME280;3928;42.626;23.382;2023-04-06T00:26:59;93850.47;;;3.13;62.14
7768;BME280;3928;42.626;23.382;2023-04-06T00:29:26;93841.22;;;3.26;62.21
7768;BME280;3928;42.626;23.382;2023-04-06T00:31:53;93856.41;;;3.21;62.73
7768;BME280;3928;42.626;23.382;2023-04-06T00:34:20;93841.22;;;3.27;62.30
7768;BME280;3928;42.626;23.382;2023-04-06T00:36:48;93843.78;;;3.33;62.05
7768;BME280;3928;42.626;23.382;2023-04-06T00:39:15;93839.56;;;3.34;62.45
7768;BME280;3928;42.626;23.382;2023-04-06T00:41:46;93839.59;;;3.46;61.85
7768;BME280;3928;42.626;23.382;2023-04-06T00:44:15;93830.28;;;3.51;61.17
7768;BME280;3928;42.626;23.382;2023-04-06T00:46:42;93823.53;;;3.51;61.46
7768;BME280;3928;42.626;23.382;2023-04-06T00:49:09;93832.81;;;3.54;61.74
7768;BME280;3928;42.626;23.382;2023-04-06T00:51:36;93833.69;;;3.61;61.46
7768;BME280;3928;42.626;23.382;2023-04-06T00:54:05;93845.47;;;3.40;61.91
7768;BME280;3928;42.626;23.382;2023-04-06T00:56:32;93837.94;;;3.62;61.90
7768;BME280;3928;42.626;23.382;2023-04-06T00:58:59;93816.75;;;3.50;61.28
7768;BME280;3928;42.626;23.382;2023-04-06T01:01:26;93834.50;;;3.55;61.60
7768;BME280;3928;42.626;23.382;2023-04-06T01:03:53;93830.31;;;3.57;60.99
7768;BME280;3928;42.626;23.382;2023-04-06T01:06:21;93830.25;;;3.37;62.13
7768;BME280;3928;42.626;23.382;2023-04-06T01:08:48;93833.59;;;3.24;62.98
7768;BME280;3928;42.626;23.382;2023-04-06T01:11:17;93794.69;;;3.08;63.16
7768;BME280;3928;42.626;23.382;2023-04-06T01:13:44;93827.69;;;3.23;63.23
7768;BME280;3928;42.626;23.382;2023-04-06T01:16:11;93828.50;;;3.18;63.67
7768;BME280;3928;42.626;23.382;2023-04-06T01:18:38;93829.34;;;3.15;63.51
7768;BME280;3928;42.626;23.382;2023-04-06T01:21:05;93796.41;;;3.20;63.57
7768;BME280;3928;42.626;23.382;2023-04-06T01:23:35;93822.66;;;3.37;62.86
7768;BME280;3928;42.626;23.382;2023-04-06T01:26:02;93793.88;;;3.28;62.93
7768;BME280;3928;42.626;23.382;2023-04-06T01:28:29;93803.25;;;3.58;62.51
7768;BME280;3928;42.626;23.382;2023-04-06T01:30:56;93805.78;;;3.45;63.28
7768;BME280;3928;42.626;23.382;2023-04-06T01:33:23;93799.84;;;3.43;63.66
7768;BME280;3928;42.626;23.382;2023-04-06T01:35:49;93803.22;;;3.32;63.99
7768;BME280;3928;42.626;23.382;2023-04-06T01:38:16;93792.19;;;3.27;63.63
7768;BME280;3928;42.626;23.382;2023-04-06T01:40:45;93806.59;;;3.32;64.11
7768;BME280;3928;42.626;23.382;2023-04-06T01:43:12;93777.81;;;3.24;63.55
7768;BME280;3928;42.626;23.382;2023-04-06T01:45:38;93798.94;;;3.29;63.81
7768;BME280;3928;42.626;23.382;2023-04-06T01:48:07;93801.50;;;3.26;63.99
7768;BME280;3928;42.626;23.382;2023-04-06T01:50:34;93798.94;;;3.31;64.49
7768;BME280;3928;42.626;23.382;2023-04-06T01:53:01;93799.78;;;3.31;64.40
7768;BME280;3928;42.626;23.382;2023-04-06T01:55:28;93784.56;;;3.16;64.63
7768;BME280;3928;42.626;23.382;2023-04-06T01:57:56;93805.75;;;3.33;64.57
7768;BME280;3928;42.626;23.382;2023-04-06T02:00:23;93792.22;;;3.33;63.98
7768;BME280;3928;42.626;23.382;2023-04-06T02:02:50;93795.59;;;3.33;64.28
7768;BME280;3928;42.626;23.382;2023-04-06T02:05:17;93769.38;;;3.40;63.70
7768;BME280;3928;42.626;23.382;2023-04-06T02:07:44;93768.53;;;3.28;63.75
7768;BME280;3928;42.626;23.382;2023-04-06T02:10:12;93791.38;;;3.35;64.65
7768;BME280;3928;42.626;23.382;2023-04-06T02:12:39;93784.59;;;3.39;64.57
7768;BME280;3928;42.626;23.382;2023-04-06T02:15:08;93769.41;;;3.37;64.35
7768;BME280;3928;42.626;23.382;2023-04-06T02:17:35;93786.31;;;3.32;64.07
7768;BME280;3928;42.626;23.382;2023-04-06T02:20:02;93784.63;;;3.43;64.42
7768;BME280;3928;42.626;23.382;2023-04-06T02:22:29;93755.00;;;3.29;63.93
7768;BME280;3928;42.626;23.382;2023-04-06T02:24:56;93786.31;;;3.35;64.60
7768;BME280;3928;42.626;23.382;2023-04-06T02:27:23;93783.75;;;3.38;64.19
7768;BME280;3928;42.626;23.382;2023-04-06T02:29:50;93785.47;;;3.44;64.25
7768;BME280;3928;42.626;23.382;2023-04-06T02:32:18;93782.09;;;3.54;63.70
7768;BME280;3928;42.626;23.382;2023-04-06T02:34:45;93782.06;;;3.39;63.98
7768;BME280;3928;42.626;23.382;2023-04-06T02:37:12;93788.84;;;3.47;63.52
7768;BME280;3928;42.626;23.382;2023-04-06T02:39:38;93788.84;;;3.38;64.48
7768;BME280;3928;42.626;23.382;2023-04-06T02:42:05;93783.75;;;3.40;63.91
7768;BME280;3928;42.626;23.382;2023-04-06T02:44:34;93779.53;;;3.40;63.95
7768;BME280;3928;42.626;23.382;2023-04-06T02:47:01;93769.41;;;3.43;63.85
7768;BME280;3928;42.626;23.382;2023-04-06T02:49:29;93786.31;;;3.41;64.19
7768;BME280;3928;42.626;23.382;2023-04-06T02:51:56;93786.31;;;3.52;63.74
7768;BME280;3928;42.626;23.382;2023-04-06T02:54:22;93751.59;;;3.17;64.49
7768;BME280;3928;42.626;23.382;2023-04-06T02:56:49;93785.44;;;3.26;65.20
7768;BME280;3928;42.626;23.382;2023-04-06T02:59:16;93775.31;;;3.33;65.15
7768;BME280;3928;42.626;23.382;2023-04-06T03:01:43;93786.31;;;3.38;64.54
7768;BME280;3928;42.626;23.382;2023-04-06T03:04:10;93773.66;;;3.46;64.41
7768;BME280;3928;42.626;23.382;2023-04-06T03:06:38;93781.22;;;3.35;64.32
7768;BME280;3928;42.626;23.382;2023-04-06T03:09:06;93765.13;;;3.30;64.91
7768;BME280;3928;42.626;23.382;2023-04-06T03:11:32;93781.22;;;3.38;64.70
7768;BME280;3928;42.626;23.382;2023-04-06T03:13:59;93780.41;;;3.45;63.75
7768;BME280;3928;42.626;23.382;2023-04-06T03:16:26;93780.38;;;3.38;64.33
7768;BME280;3928;42.626;23.382;2023-04-06T03:18:53;93776.19;;;3.47;64.88
7768;BME280;3928;42.626;23.382;2023-04-06T03:21:20;93778.72;;;3.63;64.01
7768;BME280;3928;42.626;23.382;2023-04-06T03:23:48;93776.16;;;3.55;64.13
7768;BME280;3928;42.626;23.382;2023-04-06T03:26:16;93777.06;;;3.68;63.68
7768;BME280;3928;42.626;23.382;2023-04-06T03:28:43;93774.50;;;3.43;64.88
7768;BME280;3928;42.626;23.382;2023-04-06T03:31:10;93766.84;;;3.37;64.86
7768;BME280;3928;42.626;23.382;2023-04-06T03:33:37;93777.84;;;3.55;64.70
7768;BME280;3928;42.626;23.382;2023-04-06T03:36:04;93779.56;;;3.62;64.38
7768;BME280;3928;42.626;23.382;2023-04-06T03:38:31;93772.81;;;3.44;64.21
7768;BME280;3928;42.626;23.382;2023-04-06T03:41:00;93787.19;;;3.62;64.21
7768;BME280;3928;42.626;23.382;2023-04-06T03:43:27;93761.78;;;3.33;64.33
7768;BME280;3928;42.626;23.382;2023-04-06T03:45:54;93781.19;;;3.31;64.79
7768;BME280;3928;42.626;23.382;2023-04-06T03:48:20;93767.69;;;3.39;64.76
7768;BME280;3928;42.626;23.382;2023-04-06T03:50:47;93780.41;;;3.51;64.25
7768;BME280;3928;42.626;23.382;2023-04-06T03:53:14;93784.66;;;3.57;63.86
7768;BME280;3928;42.626;23.382;2023-04-06T03:55:41;93744.88;;;3.42;64.13
7768;BME280;3928;42.626;23.382;2023-04-06T03:58:10;93752.50;;;3.45;63.92
7768;BME280;3928;42.626;23.382;2023-04-06T04:00:37;93774.47;;;3.37;64.14
7768;BME280;3928;42.626;23.382;2023-04-06T04:03:04;93774.50;;;3.43;63.80
7768;BME280;3928;42.626;23.382;2023-04-06T04:05:31;93761.78;;;3.52;63.77
7768;BME280;3928;42.626;23.382;2023-04-06T04:07:57;93742.31;;;3.30;63.86
7768;BME280;3928;42.626;23.382;2023-04-06T04:10:24;93771.09;;;3.47;63.56
7768;BME280;3928;42.626;23.382;2023-04-06T04:12:51;93783.78;;;3.47;63.78
7768;BME280;3928;42.626;23.382;2023-04-06T04:15:19;93776.19;;;3.63;63.65
7768;BME280;3928;42.626;23.382;2023-04-06T04:17:46;93767.72;;;3.50;63.03
7768;BME280;3928;42.626;23.382;2023-04-06T04:20:14;93781.19;;;3.26;64.83
7768;BME280;3928;42.626;23.382;2023-04-06T04:22:42;93767.69;;;3.24;64.49
7768;BME280;3928;42.626;23.382;2023-04-06T04:25:09;93781.22;;;3.43;64.68
7768;BME280;3928;42.626;23.382;2023-04-06T04:27:36;93786.28;;;3.29;65.16
7768;BME280;3928;42.626;23.382;2023-04-06T04:30:03;93789.72;;;3.49;65.94
7768;BME280;3928;42.626;23.382;2023-04-06T04:32:31;93787.13;;;3.42;64.59
7768;BME280;3928;42.626;23.382;2023-04-06T04:34:58;93788.88;;;3.57;64.41
7768;BME280;3928;42.626;23.382;2023-04-06T04:37:29;93786.31;;;3.50;63.73
7768;BME280;3928;42.626;23.382;2023-04-06T04:39:56;93754.19;;;3.52;63.98
7768;BME280;3928;42.626;23.382;2023-04-06T04:42:23;93778.72;;;3.76;63.55
7768;BME280;3928;42.626;23.382;2023-04-06T04:44:49;93781.25;;;3.47;63.75
7768;BME280;3928;42.626;23.382;2023-04-06T04:47:16;93788.00;;;3.51;64.36
7768;BME280;3928;42.626;23.382;2023-04-06T04:49:45;93785.50;;;3.64;64.10
7768;BME280;3928;42.626;23.382;2023-04-06T04:52:12;93784.69;;;3.80;63.13
7768;BME280;3928;42.626;23.382;2023-04-06T04:54:39;93776.19;;;3.75;63.14
7768;BME280;3928;42.626;23.382;2023-04-06T04:57:07;93788.91;;;3.81;63.37
7768;BME280;3928;42.626;23.382;2023-04-06T04:59:34;93781.28;;;3.73;63.07
7768;BME280;3928;42.626;23.382;2023-04-06T05:02:01;93797.38;;;3.81;62.71
7768;BME280;3928;42.626;23.382;2023-04-06T05:04:28;93791.41;;;3.90;61.77
7768;BME280;3928;42.626;23.382;2023-04-06T05:07:04;93776.22;;;3.96;61.72
7768;BME280;3928;42.626;23.382;2023-04-06T05:09:31;93771.13;;;3.96;63.20
7768;BME280;3928;42.626;23.382;2023-04-06T05:11:58;93662.88;;;3.40;65.78
7768;BME280;3928;42.626;23.382;2023-04-06T05:14:25;93789.72;;;4.32;61.26
7768;BME280;3928;42.626;23.382;2023-04-06T05:16:52;93774.47;;;4.39;60.25
7768;BME280;3928;42.626;23.382;2023-04-06T05:19:20;93781.16;;;4.73;59.42
7768;BME280;3928;42.626;23.382;2023-04-06T05:21:47;93787.97;;;4.64;59.55
7768;BME280;3928;42.626;23.382;2023-04-06T05:24:15;93787.09;;;4.76;58.92
7768;BME280;3928;42.626;23.382;2023-04-06T05:26:42;93773.53;;;4.79;65.24
7768;BME280;3928;42.626;23.382;2023-04-06T05:29:10;93578.31;;;3.60;58.35
7768;BME280;3928;42.626;23.382;2023-04-06T05:31:37;93777.66;;;5.10;57.71
7768;BME280;3928;42.626;23.382;2023-04-06T05:34:04;93769.19;;;5.04;57.50
7768;BME280;3928;42.626;23.382;2023-04-06T05:36:31;93782.63;;;5.27;64.11
7768;BME280;3928;42.626;23.382;2023-04-06T05:38:58;93773.44;;;5.03;58.10
7768;BME280;3928;42.626;23.382;2023-04-06T05:41:26;93777.63;;;5.13;58.16
7768;BME280;3928;42.626;23.382;2023-04-06T05:43:53;93781.88;;;5.07;57.70
7768;BME280;3928;42.626;23.382;2023-04-06T05:46:21;93781.06;;;5.00;57.56
7768;BME280;3928;42.626;23.382;2023-04-06T05:48:47;93783.63;;;4.95;58.90
7768;BME280;3928;42.626;23.382;2023-04-06T05:51:14;93787.03;;;4.97;58.11
7768;BME280;3928;42.626;23.382;2023-04-06T05:53:41;93779.41;;;4.90;58.82
7768;BME280;3928;42.626;23.382;2023-04-06T05:56:08;93781.09;;;4.91;59.30
7768;BME280;3928;42.626;23.382;2023-04-06T05:58:36;93773.44;;;4.95;59.20
7768;BME280;3928;42.626;23.382;2023-04-06T06:01:03;93776.88;;;4.84;59.85
7768;BME280;3928;42.626;23.382;2023-04-06T06:03:31;93766.75;;;4.70;59.40
7768;BME280;3928;42.626;23.382;2023-04-06T06:06:01;93772.72;;;4.60;60.46
7768;BME280;3928;42.626;23.382;2023-04-06T06:08:28;93764.28;;;4.44;61.14
7768;BME280;3928;42.626;23.382;2023-04-06T06:10:55;93772.69;;;4.72;60.67
7768;BME280;3928;42.626;23.382;2023-04-06T06:13:22;93778.56;;;4.89;60.43
7768;BME280;3928;42.626;23.382;2023-04-06T06:15:50;93761.56;;;4.96;60.72
7768;BME280;3928;42.626;23.382;2023-04-06T06:18:17;93774.25;;;5.11;59.76
7768;BME280;3928;42.626;23.382;2023-04-06T06:20:44;93765.72;;;5.18;58.90
7768;BME280;3928;42.626;23.382;2023-04-06T06:23:11;93744.66;;;4.93;59.22
7768;BME280;3928;42.626;23.382;2023-04-06T06:25:39;93769.19;;;5.02;59.61
7768;BME280;3928;42.626;23.382;2023-04-06T06:28:05;93751.44;;;4.85;59.31
7768;BME280;3928;42.626;23.382;2023-04-06T06:30:32;93764.22;;;4.68;60.90
7768;BME280;3928;42.626;23.382;2023-04-06T06:33:01;93765.03;;;4.86;67.55
7768;BME280;3928;42.626;23.382;2023-04-06T06:35:28;93753.84;;;5.22;62.20
7768;BME280;3928;42.626;23.382;2023-04-06T06:37:55;93760.47;;;5.47;60.86
7768;BME280;3928;42.626;23.382;2023-04-06T06:40:22;93767.13;;;5.70;58.05
7768;BME280;3928;42.626;23.382;2023-04-06T06:42:51;93755.28;;;5.64;57.50
7768;BME280;3928;42.626;23.382;2023-04-06T06:45:18;93760.19;;;5.88;57.49
7768;BME280;3928;42.626;23.382;2023-04-06T06:47:45;93770.41;;;5.85;56.49
7768;BME280;3928;42.626;23.382;2023-04-06T06:50:14;93776.41;;;5.77;56.31
7768;BME280;3928;42.626;23.382;2023-04-06T06:52:40;93767.84;;;5.85;56.91
7768;BME280;3928;42.626;23.382;2023-04-06T06:55:09;93767.66;;;6.13;57.03
7768;BME280;3928;42.626;23.382;2023-04-06T06:57:36;93733.50;;;6.34;55.42
7768;BME280;3928;42.626;23.382;2023-04-06T07:00:04;93756.22;;;6.57;54.52
7768;BME280;3928;42.626;23.382;2023-04-06T07:02:34;93756.66;;;6.94;54.36
7768;BME280;3928;42.626;23.382;2023-04-06T07:05:01;93737.72;;;7.13;54.17
7768;BME280;3928;42.626;23.382;2023-04-06T07:07:29;93688.22;;;7.25;54.40
7768;BME280;3928;42.626;23.382;2023-04-06T07:09:56;93751.06;;;7.90;52.30
7768;BME280;3928;42.626;23.382;2023-04-06T07:12:23;93756.34;;;7.80;50.19
7768;BME280;3928;42.626;23.382;2023-04-06T07:14:50;93766.56;;;7.80;51.07
7768;BME280;3928;42.626;23.382;2023-04-06T07:17:17;93754.16;;;7.55;50.32
7768;BME280;3928;42.626;23.382;2023-04-06T07:19:44;93761.00;;;7.53;51.32
7768;BME280;3928;42.626;23.382;2023-04-06T07:22:10;93742.41;;;7.44;50.94
7768;BME280;3928;42.626;23.382;2023-04-06T07:24:39;93760.16;;;7.51;50.38
7768;BME280;3928;42.626;23.382;2023-04-06T07:27:06;93737.84;;;7.64;50.34
7768;BME280;3928;42.626;23.382;2023-04-06T07:29:32;93757.94;;;7.87;50.44
7768;BME280;3928;42.626;23.382;2023-04-06T07:31:59;93771.19;;;8.12;50.05
7768;BME280;3928;42.626;23.382;2023-04-06T07:34:26;93751.41;;;8.23;48.21
7768;BME280;3928;42.626;23.382;2023-04-06T07:36:53;93726.75;;;8.20;47.20
7768;BME280;3928;42.626;23.382;2023-04-06T07:39:22;93751.84;;;7.97;47.78
7768;BME280;3928;42.626;23.382;2023-04-06T07:41:50;93729.94;;;8.35;48.57
7768;BME280;3928;42.626;23.382;2023-04-06T07:44:17;93758.91;;;8.34;47.37
7768;BME280;3928;42.626;23.382;2023-04-06T07:46:44;93753.00;;;8.29;46.81
7768;BME280;3928;42.626;23.382;2023-04-06T07:49:11;93754.47;;;8.45;47.00
7768;BME280;3928;42.626;23.382;2023-04-06T07:51:38;93750.94;;;8.54;47.88
7768;BME280;3928;42.626;23.382;2023-04-06T07:54:05;93736.03;;;8.25;46.40
7768;BME280;3928;42.626;23.382;2023-04-06T07:56:32;93743.66;;;8.28;47.03
7768;BME280;3928;42.626;23.382;2023-04-06T07:59:01;93750.13;;;8.50;46.74
7768;BME280;3928;42.626;23.382;2023-04-06T08:01:28;93751.97;;;8.42;47.73
7768;BME280;3928;42.626;23.382;2023-04-06T08:03:56;93747.94;;;8.76;48.44
7768;BME280;3928;42.626;23.382;2023-04-06T08:06:23;93749.34;;;8.93;47.57
7768;BME280;3928;42.626;23.382;2023-04-06T08:08:50;93729.09;;;9.22;46.19
7768;BME280;3928;42.626;23.382;2023-04-06T08:11:17;93745.94;;;9.35;44.57
7768;BME280;3928;42.626;23.382;2023-04-06T08:13:43;93751.19;;;9.28;45.64
7768;BME280;3928;42.626;23.382;2023-04-06T08:16:12;93733.97;;;9.34;45.43
7768;BME280;3928;42.626;23.382;2023-04-06T08:18:39;93741.34;;;9.50;46.12
7768;BME280;3928;42.626;23.382;2023-04-06T08:21:06;93748.41;;;9.38;45.24
7768;BME280;3928;42.626;23.382;2023-04-06T08:23:32;93751.69;;;9.44;44.76
7768;BME280;3928;42.626;23.382;2023-04-06T08:25:59;93763.25;;;8.79;45.86
7768;BME280;3928;42.626;23.382;2023-04-06T08:28:26;93754.97;;;8.65;46.70
7768;BME280;3928;42.626;23.382;2023-04-06T08:30:53;93744.84;;;8.59;46.09
7768;BME280;3928;42.626;23.382;2023-04-06T08:33:21;93750.34;;;8.36;48.05
7768;BME280;3928;42.626;23.382;2023-04-06T08:35:48;93749.88;;;8.64;49.46
7768;BME280;3928;42.626;23.382;2023-04-06T08:38:16;93745.03;;;8.95;46.70
7768;BME280;3928;42.626;23.382;2023-04-06T08:40:42;93736.69;;;8.85;45.50
7768;BME280;3928;42.626;23.382;2023-04-06T08:43:13;93738.06;;;8.57;46.35
7768;BME280;3928;42.626;23.382;2023-04-06T08:45:41;93752.16;;;8.30;46.80
7768;BME280;3928;42.626;23.382;2023-04-06T08:48:09;93721.84;;;8.08;45.92
7768;BME280;3928;42.626;23.382;2023-04-06T08:50:38;93755.03;;;8.10;46.54
7768;BME280;3928;42.626;23.382;2023-04-06T08:53:06;93753.06;;;7.72;46.14
7768;BME280;3928;42.626;23.382;2023-04-06T08:55:34;93751.03;;;7.92;46.69
7768;BME280;3928;42.626;23.382;2023-04-06T08:58:02;93732.28;;;7.93;45.58
7768;BME280;3928;42.626;23.382;2023-04-06T09:00:30;93746.09;;;7.83;45.76
7768;BME280;3928;42.626;23.382;2023-04-06T09:02:58;93748.84;;;7.69;47.00
7768;BME280;3928;42.626;23.382;2023-04-06T09:05:26;93749.31;;;7.96;46.62
7768;BME280;3928;42.626;23.382;2023-04-06T09:07:54;93739.44;;;8.25;47.01
7768;BME280;3928;42.626;23.382;2023-04-06T09:10:21;93748.09;;;8.18;46.21
7768;BME280;3928;42.626;23.382;2023-04-06T09:12:51;93739.34;;;8.31;45.72
7768;BME280;3928;42.626;23.382;2023-04-06T09:15:19;93731.97;;;8.65;45.25
7768;BME280;3928;42.626;23.382;2023-04-06T09:17:46;93738.09;;;9.01;45.33
7768;BME280;3928;42.626;23.382;2023-04-06T09:20:13;93737.03;;;9.10;43.39
7768;BME280;3928;42.626;23.382;2023-04-06T09:22:42;93722.47;;;9.54;42.99
7768;BME280;3928;42.626;23.382;2023-04-06T09:25:18;93734.13;;;9.67;42.42
7768;BME280;3928;42.626;23.382;2023-04-06T09:27:46;93730.94;;;9.94;42.52
7768;BME280;3928;42.626;23.382;2023-04-06T09:30:14;93733.84;;;10.15;42.20
7768;BME280;3928;42.626;23.382;2023-04-06T09:32:46;93732.38;;;10.74;40.85
7768;BME280;3928;42.626;23.382;2023-04-06T09:35:14;93733.19;;;11.07;39.06
7768;BME280;3928;42.626;23.382;2023-04-06T09:37:41;93739.56;;;10.28;39.89
7768;BME280;3928;42.626;23.382;2023-04-06T09:40:11;93732.59;;;10.65;39.18
7768;BME280;3928;42.626;23.382;2023-04-06T09:42:40;93732.72;;;10.93;38.90
7768;BME280;3928;42.626;23.382;2023-04-06T09:45:08;93724.25;;;11.21;38.47
7768;BME280;3928;42.626;23.382;2023-04-06T09:47:36;93728.50;;;11.51;38.53
7768;BME280;3928;42.626;23.382;2023-04-06T09:50:07;93729.88;;;11.04;39.21
7768;BME280;3928;42.626;23.382;2023-04-06T09:52:39;93718.16;;;11.25;38.62
7768;BME280;3928;42.626;23.382;2023-04-06T09:55:07;93701.94;;;11.52;38.06
7768;BME280;3928;42.626;23.382;2023-04-06T09:57:44;93727.78;;;11.46;37.94
7768;BME280;3928;42.626;23.382;2023-04-06T10:00:13;93725.34;;;11.12;37.42
7768;BME280;3928;42.626;23.382;2023-04-06T10:02:50;93725.47;;;10.76;39.00
7768;BME280;3928;42.626;23.382;2023-04-06T10:05:22;93719.66;;;10.37;38.80
7768;BME280;3928;42.626;23.382;2023-04-06T10:07:56;93715.50;;;10.97;38.41
7768;BME280;3928;42.626;23.382;2023-04-06T10:10:24;93715.16;;;10.79;38.95
7768;BME280;3928;42.626;23.382;2023-04-06T10:12:52;93727.34;;;10.37;38.96
7768;BME280;3928;42.626;23.382;2023-04-06T10:15:21;93720.41;;;10.41;38.63
7768;BME280;3928;42.626;23.382;2023-04-06T10:17:48;93720.69;;;10.63;38.59
7768;BME280;3928;42.626;23.382;2023-04-06T10:20:18;93708.28;;;10.80;37.81
7768;BME280;3928;42.626;23.382;2023-04-06T10:22:53;93701.78;;;11.29;37.57
7768;BME280;3928;42.626;23.382;2023-04-06T10:25:29;93699.50;;;11.76;37.05
7768;BME280;3928;42.626;23.382;2023-04-06T10:28:01;93704.91;;;11.96;37.17
7768;BME280;3928;42.626;23.382;2023-04-06T10:30:28;93686.91;;;11.96;36.52
7768;BME280;3928;42.626;23.382;2023-04-06T10:32:55;93693.56;;;12.28;36.11
7768;BME280;3928;42.626;23.382;2023-04-06T10:35:22;93694.53;;;12.75;35.54
7768;BME280;3928;42.626;23.382;2023-04-06T10:37:52;93678.81;;;12.83;34.01
7768;BME280;3928;42.626;23.382;2023-04-06T10:40:22;93684.25;;;13.24;33.59
7768;BME280;3928;42.626;23.382;2023-04-06T10:42:50;93711.34;;;12.85;33.69
7768;BME280;3928;42.626;23.382;2023-04-06T10:45:22;93726.16;;;12.01;35.45
7768;BME280;3928;42.626;23.382;2023-04-06T10:47:51;93722.25;;;11.89;36.04
7768;BME280;3928;42.626;23.382;2023-04-06T10:50:19;93707.44;;;12.49;35.89
7768;BME280;3928;42.626;23.382;2023-04-06T10:52:46;93717.84;;;13.21;35.41
7768;BME280;3928;42.626;23.382;2023-04-06T10:55:13;93711.25;;;13.82;33.57
7768;BME280;3928;42.626;23.382;2023-04-06T10:57:41;93703.56;;;14.46;33.62
7768;BME280;3928;42.626;23.382;2023-04-06T11:00:08;93705.88;;;14.52;31.78
7768;BME280;3928;42.626;23.382;2023-04-06T11:02:37;93708.47;;;14.52;31.72
7768;BME280;3928;42.626;23.382;2023-04-06T11:05:05;93715.16;;;14.14;31.99
7768;BME280;3928;42.626;23.382;2023-04-06T11:07:32;93696.25;;;13.70;33.35
7768;BME280;3928;42.626;23.382;2023-04-06T11:09:59;93715.84;;;13.52;33.34
7768;BME280;3928;42.626;23.382;2023-04-06T11:12:27;93708.19;;;12.77;33.78
7768;BME280;3928;42.626;23.382;2023-04-06T11:14:55;93714.78;;;12.35;34.30
7768;BME280;3928;42.626;23.382;2023-04-06T11:17:30;93697.25;;;11.65;35.70
7768;BME280;3928;42.626;23.382;2023-04-06T11:19:59;93700.81;;;11.61;35.96
7768;BME280;3928;42.626;23.382;2023-04-06T11:22:26;93709.91;;;11.43;36.45
7768;BME280;3928;42.626;23.382;2023-04-06T11:24:53;93688.50;;;11.15;37.24
7768;BME280;3928;42.626;23.382;2023-04-06T11:27:30;93696.16;;;11.44;36.59
7768;BME280;3928;42.626;23.382;2023-04-06T11:29:58;93707.59;;;11.04;37.44
7768;BME280;3928;42.626;23.382;2023-04-06T11:32:25;93713.22;;;10.86;37.52
7768;BME280;3928;42.626;23.382;2023-04-06T11:34:52;93694.75;;;10.73;37.19
7768;BME280;3928;42.626;23.382;2023-04-06T11:37:21;93711.59;;;10.83;38.04
7768;BME280;3928;42.626;23.382;2023-04-06T11:39:49;93705.16;;;11.00;38.05
7768;BME280;3928;42.626;23.382;2023-04-06T11:42:22;93693.88;;;11.05;37.51
7768;BME280;3928;42.626;23.382;2023-04-06T11:44:50;93697.31;;;11.34;38.16
7768;BME280;3928;42.626;23.382;2023-04-06T11:47:18;93693.00;;;11.06;37.32
7768;BME280;3928;42.626;23.382;2023-04-06T11:49:45;93700.06;;;10.98;38.27
7768;BME280;3928;42.626;23.382;2023-04-06T11:52:17;93708.00;;;10.91;38.42
7768;BME280;3928;42.626;23.382;2023-04-06T11:54:46;93677.28;;;10.86;37.73
7768;BME280;3928;42.626;23.382;2023-04-06T11:57:14;93692.66;;;11.19;37.03
7768;BME280;3928;42.626;23.382;2023-04-06T11:59:42;93705.34;;;11.23;37.57
7768;BME280;3928;42.626;23.382;2023-04-06T12:02:09;93707.13;;;11.21;37.59
7768;BME280;3928;42.626;23.382;2023-04-06T12:04:36;93703.53;;;11.27;36.78
7768;BME280;3928;42.626;23.382;2023-04-06T12:07:03;93686.25;;;11.32;36.51
7768;BME280;3928;42.626;23.382;2023-04-06T12:09:30;93692.50;;;11.53;36.55
7768;BME280;3928;42.626;23.382;2023-04-06T12:11:59;93699.00;;;11.64;36.61
7768;BME280;3928;42.626;23.382;2023-04-06T12:14:26;93702.44;;;11.06;37.46
7768;BME280;3928;42.626;23.382;2023-04-06T12:16:52;93692.19;;;10.42;38.79
7768;BME280;3928;42.626;23.382;2023-04-06T12:19:19;93700.50;;;10.50;38.89
7768;BME280;3928;42.626;23.382;2023-04-06T12:21:49;93699.09;;;10.39;39.10
7768;BME280;3928;42.626;23.382;2023-04-06T12:24:16;93691.69;;;10.61;38.14
7768;BME280;3928;42.626;23.382;2023-04-06T12:26:43;93693.31;;;10.63;38.15
7768;BME280;3928;42.626;23.382;2023-04-06T12:29:11;93687.78;;;10.78;38.83
7768;BME280;3928;42.626;23.382;2023-04-06T12:31:38;93663.91;;;10.75;38.14
7768;BME280;3928;42.626;23.382;2023-04-06T12:34:06;93698.00;;;10.80;38.35
7768;BME280;3928;42.626;23.382;2023-04-06T12:36:33;93692.88;;;10.80;38.74
7768;BME280;3928;42.626;23.382;2023-04-06T12:39:00;93684.25;;;10.82;39.14
7768;BME280;3928;42.626;23.382;2023-04-06T12:41:28;93682.38;;;10.88;38.50
7768;BME280;3928;42.626;23.382;2023-04-06T12:43:55;93668.34;;;10.70;38.97
7768;BME280;3928;42.626;23.382;2023-04-06T12:46:23;93685.34;;;10.74;39.15
7768;BME280;3928;42.626;23.382;2023-04-06T12:48:51;93488.69;;;9.80;38.06
7768;BME280;3928;42.626;23.382;2023-04-06T12:51:22;93680.00;;;11.11;37.58
7768;BME280;3928;42.626;23.382;2023-04-06T12:53:48;93676.41;;;10.87;37.56
7768;BME280;3928;42.626;23.382;2023-04-06T12:56:16;93663.56;;;10.87;37.52
7768;BME280;3928;42.626;23.382;2023-04-06T12:58:43;93666.72;;;10.97;37.99
7768;BME280;3928;42.626;23.382;2023-04-06T13:01:10;93650.59;;;10.93;37.71
7768;BME280;3928;42.626;23.382;2023-04-06T13:03:39;93669.25;;;10.98;37.93
7768;BME280;3928;42.626;23.382;2023-04-06T13:06:06;93668.41;;;10.98;37.61
7768;BME280;3928;42.626;23.382;2023-04-06T13:08:34;93434.06;;;9.47;38.06
7768;BME280;3928;42.626;23.382;2023-04-06T13:11:02;93640.91;;;10.72;37.73
7768;BME280;3928;42.626;23.382;2023-04-06T13:13:30;93663.03;;;10.76;37.96
7768;BME280;3928;42.626;23.382;2023-04-06T13:16:00;93649.47;;;10.72;38.01
7768;BME280;3928;42.626;23.382;2023-04-06T13:18:27;93662.63;;;10.91;38.24
7768;BME280;3928;42.626;23.382;2023-04-06T13:20:56;93665.25;;;10.88;38.19